createdAt,value
2022-10-01T00:00:50.584Z,13.34
2022-10-01T00:01:52.982Z,13.30
2022-10-01T00:02:55.509Z,13.26
2022-10-01T00:03:57.773Z,13.26
2022-10-01T00:05:00.491Z,13.28
2022-10-01T00:06:09.687Z,13.31
2022-10-01T00:07:15.361Z,13.32
2022-10-01T00:08:19.998Z,13.31
2022-10-01T00:09:22.320Z,13.35
2022-10-01T00:10:24.694Z,13.34
2022-10-01T00:11:27.112Z,13.32
2022-10-01T00:12:29.499Z,13.34
2022-10-01T00:13:31.865Z,13.32
2022-10-01T00:14:34.287Z,13.33
2022-10-01T00:15:40.879Z,13.31
2022-10-01T00:16:43.542Z,13.35
2022-10-01T00:17:46.073Z,13.35
2022-10-01T00:18:49.905Z,13.33
2022-10-01T00:19:52.389Z,13.34
2022-10-01T00:20:54.630Z,13.33
2022-10-01T00:21:56.951Z,13.32
2022-10-01T00:23:00.169Z,13.35
2022-10-01T00:24:05.220Z,13.36
2022-10-01T00:25:07.858Z,13.33
2022-10-01T00:26:11.563Z,13.32
2022-10-01T00:27:14.281Z,13.32
2022-10-01T00:28:16.701Z,13.33
2022-10-01T00:29:18.977Z,13.37
2022-10-01T00:30:21.781Z,13.36
2022-10-01T00:31:25.487Z,13.34
2022-10-01T00:32:27.887Z,13.33
2022-10-01T00:33:30.422Z,13.35
2022-10-01T00:34:32.672Z,13.36
2022-10-01T00:35:35.061Z,13.34
2022-10-01T00:36:37.727Z,13.34
2022-10-01T00:37:40.278Z,13.31
2022-10-01T00:38:42.728Z,13.33
2022-10-01T00:39:45.114Z,13.31
2022-10-01T00:40:47.540Z,13.29
2022-10-01T00:41:51.252Z,13.28
2022-10-01T00:42:53.685Z,13.31
2022-10-01T00:43:59.839Z,13.30
2022-10-01T00:45:02.465Z,13.26
2022-10-01T00:46:15.976Z,13.28
2022-10-01T00:47:37.187Z,13.32
2022-10-01T00:48:48.124Z,13.33
2022-10-01T00:49:56.409Z,13.31
2022-10-01T00:51:01.998Z,13.26
2022-10-01T00:52:09.869Z,13.27
2022-10-01T00:53:12.784Z,13.26
2022-10-01T00:54:20.972Z,13.29
2022-10-01T00:55:30.132Z,13.28
2022-10-01T00:56:34.376Z,13.26
2022-10-01T00:57:36.950Z,13.28
2022-10-01T00:58:40.398Z,13.26
2022-10-01T00:59:43.278Z,13.31
2022-10-01T01:00:46.419Z,13.31
2022-10-01T01:01:49.006Z,13.29
2022-10-01T01:02:51.644Z,13.33
2022-10-01T01:03:54.085Z,13.37
2022-10-01T01:04:56.501Z,13.38
2022-10-01T01:05:58.832Z,13.40
2022-10-01T01:07:03.602Z,13.42
2022-10-01T01:08:06.878Z,13.40
2022-10-01T01:09:09.257Z,13.42
2022-10-01T01:10:14.608Z,13.40
2022-10-01T01:11:37.634Z,13.39
2022-10-01T01:12:58.010Z,13.42
2022-10-01T01:14:12.572Z,13.42
2022-10-01T01:15:20.420Z,13.45
2022-10-01T01:16:34.225Z,13.41
2022-10-01T01:18:04.814Z,13.39
2022-10-01T01:19:16.060Z,13.39
2022-10-01T01:20:56.655Z,13.39
2022-10-01T01:22:05.147Z,13.41
2022-10-01T01:23:10.661Z,13.43
2022-10-01T01:24:35.932Z,13.43
2022-10-01T01:26:14.498Z,13.47
2022-10-01T01:28:01.192Z,13.42
2022-10-01T01:29:21.866Z,13.42
2022-10-01T01:30:24.173Z,13.47
2022-10-01T01:31:33.979Z,13.48
2022-10-01T01:33:05.152Z,13.45
2022-10-01T01:34:14.172Z,13.47
2022-10-01T01:35:24.670Z,13.47
2022-10-01T01:36:32.424Z,13.49
2022-10-01T01:37:40.372Z,13.49
2022-10-01T01:38:52.148Z,13.47
2022-10-01T01:39:57.347Z,13.46
2022-10-01T01:41:02.359Z,13.43
2022-10-01T01:42:10.412Z,13.45
2022-10-01T01:43:20.669Z,13.46
2022-10-01T01:44:28.420Z,13.49
2022-10-01T01:45:30.992Z,13.49
2022-10-01T01:46:36.575Z,13.49
2022-10-01T01:47:42.290Z,13.52
2022-10-01T01:48:49.627Z,13.50
2022-10-01T01:49:53.431Z,13.52
2022-10-01T01:51:06.884Z,13.52
2022-10-01T01:52:15.289Z,13.52
2022-10-01T01:53:18.154Z,13.50
2022-10-01T01:54:20.637Z,13.49
2022-10-01T01:55:25.229Z,13.54
2022-10-01T01:56:28.238Z,13.57
2022-10-01T01:57:30.601Z,13.59
2022-10-01T01:58:35.191Z,13.59
2022-10-01T01:59:37.757Z,13.59
2022-10-01T02:00:41.054Z,13.61
2022-10-01T02:01:44.802Z,13.57
2022-10-01T02:02:53.815Z,13.55
2022-10-01T02:03:56.113Z,13.55
2022-10-01T02:05:04.005Z,13.55
2022-10-01T02:06:26.368Z,13.55
2022-10-01T02:07:53.235Z,13.58
2022-10-01T02:09:21.532Z,13.59
2022-10-01T02:10:37.133Z,13.58
2022-10-01T02:11:54.607Z,13.58
2022-10-01T02:13:01.810Z,13.56
2022-10-01T02:14:15.652Z,13.55
2022-10-01T02:15:28.360Z,13.59
2022-10-01T02:16:45.873Z,13.57
2022-10-01T02:18:03.526Z,13.52
2022-10-01T02:19:11.730Z,13.51
2022-10-01T02:20:45.271Z,13.56
2022-10-01T02:21:59.901Z,13.52
2022-10-01T02:23:27.675Z,13.56
2022-10-01T02:24:57.221Z,13.54
2022-10-01T02:26:04.667Z,13.54
2022-10-01T02:27:15.584Z,13.56
2022-10-01T02:28:23.344Z,13.55
2022-10-01T02:29:26.619Z,13.55
2022-10-01T02:30:31.599Z,13.56
2022-10-01T02:31:35.161Z,13.55
2022-10-01T02:32:40.745Z,13.49
2022-10-01T02:33:46.018Z,13.51
2022-10-01T02:34:50.236Z,13.45
2022-10-01T02:35:56.806Z,13.47
2022-10-01T02:37:02.328Z,13.51
2022-10-01T02:38:07.350Z,13.55
2022-10-01T02:39:11.389Z,13.51
2022-10-01T02:40:18.312Z,13.52
2022-10-01T02:41:27.421Z,13.50
2022-10-01T02:42:30.470Z,13.46
2022-10-01T02:43:42.587Z,13.49
2022-10-01T02:44:46.795Z,13.49
2022-10-01T02:45:55.656Z,13.49
2022-10-01T02:47:07.955Z,13.47
2022-10-01T02:48:12.225Z,13.46
2022-10-01T02:49:15.189Z,13.44
2022-10-01T02:50:17.576Z,13.43
2022-10-01T02:51:40.875Z,13.44
2022-10-01T02:52:49.569Z,13.43
2022-10-01T02:54:17.917Z,13.32
2022-10-01T02:55:30.212Z,13.33
2022-10-01T02:56:56.046Z,13.37
2022-10-01T02:57:59.037Z,13.37
2022-10-01T02:59:01.324Z,13.36
2022-10-01T03:00:11.564Z,13.30
2022-10-01T03:01:21.368Z,13.32
2022-10-01T03:02:27.736Z,13.36
2022-10-01T03:03:31.822Z,13.37
2022-10-01T03:04:34.041Z,13.36
2022-10-01T03:05:36.295Z,13.39
2022-10-01T03:06:38.886Z,13.37
2022-10-01T03:07:41.473Z,13.36
2022-10-01T03:08:43.926Z,13.31
2022-10-01T03:09:46.408Z,13.35
2022-10-01T03:10:48.725Z,13.36
2022-10-01T03:11:51.459Z,13.36
2022-10-01T03:12:56.345Z,13.39
2022-10-01T03:13:58.694Z,13.34
2022-10-01T03:15:01.266Z,13.35
2022-10-01T03:16:03.541Z,13.35
2022-10-01T03:17:09.955Z,13.36
2022-10-01T03:18:12.369Z,13.42
2022-10-01T03:19:14.516Z,13.40
2022-10-01T03:20:16.857Z,13.60
2022-10-01T03:21:19.477Z,13.59
2022-10-01T03:22:23.838Z,13.62
2022-10-01T03:23:26.230Z,13.61
2022-10-01T03:24:29.045Z,13.62
2022-10-01T03:25:34.478Z,13.67
2022-10-01T03:26:37.678Z,13.71
2022-10-01T03:27:40.049Z,13.66
2022-10-01T03:28:42.722Z,13.67
2022-10-01T03:29:45.470Z,13.73
2022-10-01T03:30:47.746Z,13.70
2022-10-01T03:31:50.481Z,13.71
2022-10-01T03:32:52.765Z,13.70
2022-10-01T03:33:55.307Z,13.69
2022-10-01T03:34:57.878Z,13.68
2022-10-01T03:36:00.390Z,13.68
2022-10-01T03:37:02.647Z,13.71
2022-10-01T03:38:05.073Z,13.71
2022-10-01T03:39:07.763Z,13.70
2022-10-01T03:40:10.137Z,13.70
2022-10-01T03:41:12.432Z,13.71
2022-10-01T03:42:16.016Z,13.69
2022-10-01T03:43:18.484Z,13.70
2022-10-01T03:44:20.834Z,13.70
2022-10-01T03:45:23.189Z,13.70
2022-10-01T03:46:26.644Z,13.72
2022-10-01T03:47:28.913Z,13.73
2022-10-01T03:48:31.493Z,13.71
2022-10-01T03:49:34.874Z,13.70
2022-10-01T03:50:37.111Z,13.65
2022-10-01T03:51:39.385Z,13.67
2022-10-01T03:52:42.941Z,13.66
2022-10-01T03:53:45.117Z,13.66
2022-10-01T03:54:47.559Z,13.67
2022-10-01T03:55:50.730Z,13.67
2022-10-01T03:56:53.424Z,13.69
2022-10-01T03:57:55.668Z,13.67
2022-10-01T03:58:57.851Z,13.65
2022-10-01T04:00:07.208Z,13.65
2022-10-01T04:01:13.793Z,13.67
2022-10-01T04:02:16.433Z,13.65
2022-10-01T04:03:18.899Z,13.62
2022-10-01T04:04:21.178Z,13.63
2022-10-01T04:05:25.733Z,13.63
2022-10-01T04:06:28.151Z,13.67
2022-10-01T04:07:30.483Z,13.65
2022-10-01T04:08:33.242Z,13.66
2022-10-01T04:09:37.806Z,13.68
2022-10-01T04:10:40.236Z,13.63
2022-10-01T04:11:42.546Z,13.60
2022-10-01T04:12:44.769Z,13.59
2022-10-01T04:13:47.051Z,13.57
2022-10-01T04:14:49.401Z,13.56
2022-10-01T04:15:51.762Z,13.56
2022-10-01T04:16:56.412Z,13.55
2022-10-01T04:17:59.323Z,13.54
2022-10-01T04:19:03.582Z,13.54
2022-10-01T04:20:06.294Z,13.51
2022-10-01T04:21:08.613Z,13.52
2022-10-01T04:22:10.894Z,13.53
2022-10-01T04:23:13.357Z,13.52
2022-10-01T04:24:15.619Z,13.54
2022-10-01T04:25:18.189Z,13.53
2022-10-01T04:26:20.630Z,13.51
2022-10-01T04:27:22.930Z,13.54
2022-10-01T04:28:25.596Z,13.50
2022-10-01T04:29:27.950Z,13.50
2022-10-01T04:30:33.694Z,13.53
2022-10-01T04:31:36.473Z,13.53
2022-10-01T04:32:38.961Z,13.53
2022-10-01T04:33:41.568Z,13.56
2022-10-01T04:34:53.187Z,13.56
2022-10-01T04:35:55.564Z,13.61
2022-10-01T04:36:57.802Z,13.59
2022-10-01T04:38:03.669Z,13.60
2022-10-01T04:39:07.001Z,13.60
2022-10-01T04:40:10.937Z,13.62
2022-10-01T04:41:15.069Z,13.61
2022-10-01T04:42:17.387Z,13.59
2022-10-01T04:43:19.881Z,13.59
2022-10-01T04:44:22.244Z,13.60
2022-10-01T04:45:31.021Z,13.61
2022-10-01T04:46:33.374Z,13.60
2022-10-01T04:47:37.736Z,13.61
2022-10-01T04:48:40.943Z,13.61
2022-10-01T04:49:43.291Z,13.61
2022-10-01T04:50:45.719Z,13.66
2022-10-01T04:51:48.046Z,13.66
2022-10-01T04:52:51.412Z,13.66
2022-10-01T04:53:53.814Z,13.67
2022-10-01T04:54:56.365Z,13.66
2022-10-01T04:55:59.049Z,13.71
2022-10-01T04:57:01.950Z,13.70
2022-10-01T04:58:04.237Z,13.68
2022-10-01T04:59:06.683Z,13.70
2022-10-01T05:00:12.151Z,13.74
2022-10-01T05:01:15.202Z,13.75
2022-10-01T05:02:18.437Z,13.76
2022-10-01T05:03:20.898Z,13.75
2022-10-01T05:04:23.424Z,13.76
2022-10-01T05:05:27.498Z,13.76
2022-10-01T05:06:29.817Z,13.79
2022-10-01T05:07:32.734Z,13.77
2022-10-01T05:08:34.998Z,13.75
2022-10-01T05:09:37.420Z,13.78
2022-10-01T05:10:39.805Z,13.77
2022-10-01T05:11:42.167Z,13.78
2022-10-01T05:12:46.425Z,13.79
2022-10-01T05:13:48.760Z,13.81
2022-10-01T05:14:55.251Z,13.78
2022-10-01T05:15:58.430Z,13.80
2022-10-01T05:17:01.192Z,13.81
2022-10-01T05:18:04.062Z,13.80
2022-10-01T05:19:06.989Z,13.79
2022-10-01T05:20:15.868Z,13.82
2022-10-01T05:21:18.314Z,13.84
2022-10-01T05:22:20.692Z,13.86
2022-10-01T05:23:23.049Z,13.89
2022-10-01T05:24:25.866Z,13.88
2022-10-01T05:25:28.304Z,13.91
2022-10-01T05:26:32.238Z,13.87
2022-10-01T05:27:38.029Z,13.87
2022-10-01T05:28:44.603Z,13.87
2022-10-01T05:29:47.150Z,13.89
2022-10-01T05:30:49.635Z,13.93
2022-10-01T05:31:52.089Z,13.94
2022-10-01T05:32:56.554Z,13.91
2022-10-01T05:33:59.113Z,13.87
2022-10-01T05:35:01.530Z,13.90
2022-10-01T05:36:07.063Z,13.89
2022-10-01T05:37:11.122Z,13.88
2022-10-01T05:38:14.472Z,13.94
2022-10-01T05:39:16.759Z,13.94
2022-10-01T05:40:20.068Z,13.96
2022-10-01T05:41:22.402Z,13.97
2022-10-01T05:42:25.135Z,13.99
2022-10-01T05:43:27.338Z,13.92
2022-10-01T05:44:29.757Z,13.92
2022-10-01T05:45:32.845Z,13.99
2022-10-01T05:46:35.200Z,13.94
2022-10-01T05:47:37.524Z,13.94
2022-10-01T05:48:39.889Z,14.00
2022-10-01T05:49:44.518Z,13.97
2022-10-01T05:50:47.413Z,13.95
2022-10-01T05:51:49.852Z,13.95
2022-10-01T05:52:54.843Z,13.97
2022-10-01T05:53:59.327Z,13.99
2022-10-01T05:55:01.680Z,13.98
2022-10-01T05:56:06.108Z,13.97
2022-10-01T05:57:08.745Z,14.00
2022-10-01T05:58:13.492Z,14.00
2022-10-01T05:59:16.372Z,14.01
2022-10-01T06:00:20.747Z,14.02
2022-10-01T06:01:23.298Z,14.06
2022-10-01T06:02:25.936Z,14.05
2022-10-01T06:03:29.208Z,14.07
2022-10-01T06:04:31.721Z,14.11
2022-10-01T06:05:35.944Z,14.11
2022-10-01T06:06:38.454Z,14.13
2022-10-01T06:07:40.800Z,14.15
2022-10-01T06:08:47.009Z,14.10
2022-10-01T06:09:49.639Z,14.10
2022-10-01T06:10:58.658Z,14.07
2022-10-01T06:12:01.222Z,14.11
2022-10-01T06:13:05.833Z,14.15
2022-10-01T06:14:08.543Z,14.14
2022-10-01T06:15:12.327Z,14.16
2022-10-01T06:16:15.463Z,14.13
2022-10-01T06:17:17.741Z,14.12
2022-10-01T06:18:20.375Z,14.10
2022-10-01T06:19:22.720Z,14.14
2022-10-01T06:20:25.049Z,14.22
2022-10-01T06:21:28.467Z,14.20
2022-10-01T06:22:31.033Z,14.19
2022-10-01T06:23:34.218Z,14.22
2022-10-01T06:24:36.689Z,14.17
2022-10-01T06:25:40.506Z,14.16
2022-10-01T06:26:43.941Z,14.25
2022-10-01T06:27:55.744Z,14.24
2022-10-01T06:28:58.049Z,14.30
2022-10-01T06:30:00.238Z,14.35
2022-10-01T06:31:03.019Z,14.40
2022-10-01T06:32:05.663Z,14.44
2022-10-01T06:33:13.466Z,14.49
2022-10-01T06:34:15.976Z,14.54
2022-10-01T06:35:20.506Z,14.60
2022-10-01T06:36:22.854Z,14.62
2022-10-01T06:37:26.103Z,14.66
2022-10-01T06:38:28.480Z,14.65
2022-10-01T06:39:30.830Z,14.67
2022-10-01T06:40:33.182Z,14.73
2022-10-01T06:41:35.731Z,14.77
2022-10-01T06:42:38.376Z,14.75
2022-10-01T06:43:40.702Z,14.74
2022-10-01T06:44:43.403Z,14.78
2022-10-01T06:45:45.741Z,14.83
2022-10-01T06:46:48.126Z,14.80
2022-10-01T06:48:03.129Z,14.78
2022-10-01T06:49:05.391Z,14.76
2022-10-01T06:50:08.036Z,14.83
2022-10-01T06:51:12.652Z,14.83
2022-10-01T06:52:33.897Z,14.83
2022-10-01T06:53:36.324Z,14.83
2022-10-01T06:54:38.599Z,14.88
2022-10-01T06:55:41.572Z,14.88
2022-10-01T06:56:44.174Z,14.93
2022-10-01T06:57:47.531Z,14.94
2022-10-01T06:58:51.921Z,14.98
2022-10-01T06:59:54.532Z,14.99
2022-10-01T07:01:01.711Z,15.00
2022-10-01T07:02:05.145Z,15.01
2022-10-01T07:03:11.667Z,15.07
2022-10-01T07:04:14.383Z,15.17
2022-10-01T07:05:17.305Z,15.15
2022-10-01T07:06:20.124Z,15.18
2022-10-01T07:07:23.704Z,15.21
2022-10-01T07:08:27.570Z,15.23
2022-10-01T07:09:29.853Z,15.32
2022-10-01T07:10:33.291Z,15.36
2022-10-01T07:11:41.618Z,15.35
2022-10-01T07:12:44.185Z,15.39
2022-10-01T07:13:48.186Z,15.33
2022-10-01T07:14:54.705Z,15.40
2022-10-01T07:15:57.357Z,15.36
2022-10-01T07:16:59.699Z,15.41
2022-10-01T07:18:02.217Z,15.34
2022-10-01T07:19:05.552Z,15.39
2022-10-01T07:20:08.554Z,15.45
2022-10-01T07:21:10.827Z,15.53
2022-10-01T07:22:13.384Z,15.59
2022-10-01T07:23:18.755Z,15.72
2022-10-01T07:24:21.208Z,15.61
2022-10-01T07:25:23.675Z,15.67
2022-10-01T07:26:26.153Z,15.79
2022-10-01T07:27:28.694Z,15.88
2022-10-01T07:28:31.189Z,15.88
2022-10-01T07:29:33.665Z,15.88
2022-10-01T07:30:36.075Z,16.13
2022-10-01T07:31:38.889Z,16.08
2022-10-01T07:32:45.252Z,16.10
2022-10-01T07:33:48.464Z,16.09
2022-10-01T07:34:50.900Z,16.19
2022-10-01T07:35:53.247Z,16.20
2022-10-01T07:36:56.541Z,16.30
2022-10-01T07:37:58.845Z,16.37
2022-10-01T07:39:01.893Z,16.37
2022-10-01T07:40:07.497Z,16.32
2022-10-01T07:41:10.633Z,16.40
2022-10-01T07:42:13.000Z,16.35
2022-10-01T07:43:15.403Z,16.40
2022-10-01T07:44:18.766Z,16.40
2022-10-01T07:45:25.761Z,16.36
2022-10-01T07:46:31.437Z,16.34
2022-10-01T07:47:36.626Z,16.43
2022-10-01T07:48:38.933Z,16.30
2022-10-01T07:49:41.298Z,16.34
2022-10-01T07:50:47.636Z,16.45
2022-10-01T07:51:50.124Z,16.36
2022-10-01T07:52:53.957Z,16.43
2022-10-01T07:53:56.500Z,16.41
2022-10-01T07:54:59.004Z,16.38
2022-10-01T07:56:02.979Z,16.30
2022-10-01T07:57:05.586Z,16.23
2022-10-01T07:58:08.306Z,16.23
2022-10-01T07:59:11.291Z,16.23
2022-10-01T08:00:13.907Z,16.26
2022-10-01T08:01:17.408Z,16.22
2022-10-01T08:02:20.008Z,16.19
2022-10-01T08:03:22.471Z,16.15
2022-10-01T08:04:43.649Z,16.05
2022-10-01T08:05:46.989Z,15.97
2022-10-01T08:06:49.507Z,16.02
2022-10-01T08:07:58.276Z,15.93
2022-10-01T08:09:00.651Z,15.92
2022-10-01T08:10:04.590Z,15.91
2022-10-01T08:11:08.848Z,15.96
2022-10-01T08:12:11.737Z,15.91
2022-10-01T08:13:16.838Z,15.93
2022-10-01T08:14:20.429Z,15.94
2022-10-01T08:15:22.758Z,15.98
2022-10-01T08:16:29.281Z,16.01
2022-10-01T08:17:41.984Z,16.02
2022-10-01T08:18:44.719Z,16.01
2022-10-01T08:19:47.188Z,16.01
2022-10-01T08:20:53.098Z,16.04
2022-10-01T08:21:56.324Z,16.08
2022-10-01T08:23:06.460Z,16.09
2022-10-01T08:24:09.123Z,16.11
2022-10-01T08:25:11.546Z,16.14
2022-10-01T08:26:13.858Z,16.14
2022-10-01T08:27:16.378Z,16.12
2022-10-01T08:28:18.892Z,16.16
2022-10-01T08:29:21.484Z,16.10
2022-10-01T08:30:24.667Z,16.10
2022-10-01T08:31:30.337Z,16.23
2022-10-01T08:32:33.141Z,16.27
2022-10-01T08:33:39.903Z,16.33
2022-10-01T08:34:43.259Z,16.37
2022-10-01T08:35:45.762Z,16.49
2022-10-01T08:36:51.894Z,16.57
2022-10-01T08:37:56.831Z,16.54
2022-10-01T08:38:59.691Z,16.65
2022-10-01T08:40:02.212Z,16.70
2022-10-01T08:41:23.523Z,16.72
2022-10-01T08:42:48.151Z,16.86
2022-10-01T08:43:51.912Z,16.85
2022-10-01T08:44:54.592Z,16.78
2022-10-01T08:46:03.417Z,16.83
2022-10-01T08:47:13.656Z,16.93
2022-10-01T08:48:24.340Z,16.98
2022-10-01T08:49:42.531Z,17.13
2022-10-01T08:51:08.452Z,17.35
2022-10-01T08:52:19.310Z,17.50
2022-10-01T08:53:38.976Z,17.62
2022-10-01T08:54:48.582Z,17.63
2022-10-01T08:55:52.239Z,17.64
2022-10-01T08:56:57.158Z,17.72
2022-10-01T08:58:02.635Z,17.70
2022-10-01T08:59:14.200Z,17.72
2022-10-01T09:00:19.058Z,17.81
2022-10-01T09:01:22.432Z,17.55
2022-10-01T09:02:30.518Z,17.58
2022-10-01T09:03:34.189Z,17.63
2022-10-01T09:04:36.683Z,17.53
2022-10-01T09:05:52.582Z,17.43
2022-10-01T09:07:15.346Z,17.39
2022-10-01T09:08:46.363Z,17.37
2022-10-01T09:10:18.449Z,17.34
2022-10-01T09:11:26.759Z,17.36
2022-10-01T09:12:36.562Z,17.35
2022-10-01T09:13:54.174Z,17.26
2022-10-01T09:15:09.975Z,17.31
2022-10-01T09:16:18.386Z,17.37
2022-10-01T09:17:36.685Z,17.38
2022-10-01T09:19:23.134Z,17.36
2022-10-01T09:20:52.738Z,17.47
2022-10-01T09:22:10.391Z,17.50
2022-10-01T09:23:29.106Z,17.48
2022-10-01T09:24:41.394Z,17.46
2022-10-01T09:25:46.138Z,17.47
2022-10-01T09:26:49.153Z,17.47
2022-10-01T09:27:52.900Z,17.44
2022-10-01T09:28:56.234Z,17.41
2022-10-01T09:30:05.333Z,17.32
2022-10-01T09:31:21.626Z,17.39
2022-10-01T09:32:38.701Z,17.44
2022-10-01T09:33:52.222Z,17.40
2022-10-01T09:34:55.056Z,17.52
2022-10-01T09:36:17.670Z,17.62
2022-10-01T09:37:57.571Z,17.55
2022-10-01T09:39:10.306Z,17.69
2022-10-01T09:40:21.276Z,17.78
2022-10-01T09:41:23.800Z,17.79
2022-10-01T09:42:29.453Z,17.91
2022-10-01T09:43:35.125Z,17.98
2022-10-01T09:44:37.958Z,18.02
2022-10-01T09:45:56.577Z,18.09
2022-10-01T09:46:59.300Z,18.04
2022-10-01T09:48:18.762Z,18.02
2022-10-01T09:49:39.749Z,18.01
2022-10-01T09:50:50.624Z,18.06
2022-10-01T09:51:58.722Z,17.99
2022-10-01T09:53:01.688Z,17.90
2022-10-01T09:54:33.002Z,17.93
2022-10-01T09:55:40.862Z,17.90
2022-10-01T09:56:48.605Z,17.89
2022-10-01T09:58:13.921Z,17.86
2022-10-01T09:59:24.555Z,17.75
2022-10-01T10:00:27.849Z,17.75
2022-10-01T10:01:51.730Z,17.83
2022-10-01T10:02:56.448Z,17.89
2022-10-01T10:03:59.232Z,18.00
2022-10-01T10:05:02.466Z,18.00
2022-10-01T10:06:09.018Z,18.03
2022-10-01T10:07:17.976Z,18.12
2022-10-01T10:08:28.701Z,18.10
2022-10-01T10:09:34.025Z,18.13
2022-10-01T10:10:39.798Z,18.06
2022-10-01T10:11:45.393Z,18.15
2022-10-01T10:12:54.492Z,18.06
2022-10-01T10:14:00.553Z,17.98
2022-10-01T10:15:17.240Z,17.91
2022-10-01T10:16:26.731Z,17.87
2022-10-01T10:17:29.316Z,17.73
2022-10-01T10:18:35.670Z,17.67
2022-10-01T10:19:39.416Z,17.72
2022-10-01T10:20:44.947Z,17.77
2022-10-01T10:21:54.060Z,17.76
2022-10-01T10:23:20.308Z,17.71
2022-10-01T10:24:26.807Z,17.67
2022-10-01T10:25:29.457Z,17.71
2022-10-01T10:26:42.690Z,17.73
2022-10-01T10:27:56.421Z,17.70
2022-10-01T10:29:02.334Z,17.74
2022-10-01T10:30:16.073Z,17.71
2022-10-01T10:31:24.643Z,17.73
2022-10-01T10:32:28.738Z,17.74
2022-10-01T10:33:31.084Z,17.71
2022-10-01T10:34:38.532Z,17.69
2022-10-01T10:35:41.586Z,17.65
2022-10-01T10:36:45.518Z,17.72
2022-10-01T10:37:51.787Z,17.79
2022-10-01T10:38:56.044Z,17.71
2022-10-01T10:39:59.092Z,17.67
2022-10-01T10:41:04.055Z,17.63
2022-10-01T10:42:07.713Z,17.59
2022-10-01T10:43:22.950Z,17.55
2022-10-01T10:44:32.579Z,17.64
2022-10-01T10:45:38.375Z,17.63
2022-10-01T10:46:45.917Z,17.63
2022-10-01T10:47:53.515Z,17.61
2022-10-01T10:49:04.914Z,17.71
2022-10-01T10:50:29.413Z,17.62
2022-10-01T10:51:51.624Z,17.73
2022-10-01T10:52:54.001Z,17.78
2022-10-01T10:53:56.684Z,17.77
2022-10-01T10:55:03.470Z,17.80
2022-10-01T10:56:07.387Z,17.73
2022-10-01T10:57:32.078Z,17.76
2022-10-01T10:58:42.598Z,17.74
2022-10-01T10:59:57.840Z,17.68
2022-10-01T11:01:16.428Z,17.66
2022-10-01T11:02:21.486Z,17.68
2022-10-01T11:03:30.131Z,17.68
2022-10-01T11:04:47.300Z,17.69
2022-10-01T11:05:56.683Z,17.87
2022-10-01T11:07:04.313Z,17.92
2022-10-01T11:08:16.886Z,17.98
2022-10-01T11:09:20.043Z,18.08
2022-10-01T11:10:47.442Z,18.13
2022-10-01T11:12:09.497Z,18.25
2022-10-01T11:13:34.357Z,18.25
2022-10-01T11:15:02.988Z,18.29
2022-10-01T11:16:42.104Z,18.35
2022-10-01T11:18:09.546Z,18.33
2022-10-01T11:19:21.733Z,18.40
2022-10-01T11:20:50.768Z,18.53
2022-10-01T11:22:11.986Z,18.62
2022-10-01T11:23:29.992Z,18.61
2022-10-01T11:25:03.319Z,18.65
2022-10-01T11:26:14.838Z,18.65
2022-10-01T11:27:36.738Z,18.63
2022-10-01T11:28:51.286Z,18.67
2022-10-01T11:30:05.319Z,18.62
2022-10-01T11:31:22.688Z,18.59
2022-10-01T11:32:29.551Z,18.66
2022-10-01T11:33:58.122Z,18.55
2022-10-01T11:35:26.398Z,18.58
2022-10-01T11:37:21.222Z,18.60
2022-10-01T11:38:48.675Z,18.68
2022-10-01T11:39:55.586Z,18.61
2022-10-01T11:41:03.712Z,18.61
2022-10-01T11:42:11.485Z,18.59
2022-10-01T11:43:34.060Z,18.60
2022-10-01T11:44:44.646Z,18.60
2022-10-01T11:45:52.592Z,18.54
2022-10-01T11:47:10.588Z,18.62
2022-10-01T11:48:26.107Z,18.63
2022-10-01T11:49:44.834Z,18.61
2022-10-01T11:50:49.338Z,18.61
2022-10-01T11:52:29.028Z,18.62
2022-10-01T11:53:38.498Z,18.61
2022-10-01T11:55:25.196Z,18.61
2022-10-01T11:56:51.119Z,18.62
2022-10-01T11:58:18.029Z,18.60
2022-10-01T11:59:23.902Z,18.68
2022-10-01T12:00:27.484Z,18.69
2022-10-01T12:01:42.559Z,18.65
2022-10-01T12:02:56.985Z,18.65
2022-10-01T12:04:05.676Z,18.66
2022-10-01T12:05:17.275Z,18.66
2022-10-01T12:06:33.635Z,18.58
2022-10-01T12:07:50.148Z,18.53
2022-10-01T12:09:20.486Z,18.49
2022-10-01T12:10:25.906Z,18.48
2022-10-01T12:11:40.262Z,18.47
2022-10-01T12:12:58.317Z,18.42
2022-10-01T12:14:11.687Z,18.50
2022-10-01T12:15:24.408Z,18.32
2022-10-01T12:16:36.112Z,18.37
2022-10-01T12:17:47.220Z,18.39
2022-10-01T12:19:01.145Z,18.31
2022-10-01T12:20:12.970Z,18.36
2022-10-01T12:21:27.766Z,18.38
2022-10-01T12:22:34.812Z,18.47
2022-10-01T12:23:45.878Z,18.57
2022-10-01T12:24:48.854Z,18.59
2022-10-01T12:26:16.208Z,18.65
2022-10-01T12:27:38.733Z,18.62
2022-10-01T12:29:02.413Z,18.65
2022-10-01T12:30:21.290Z,18.65
2022-10-01T12:31:32.353Z,18.68
2022-10-01T12:33:02.296Z,18.67
2022-10-01T12:34:13.296Z,18.63
2022-10-01T12:35:40.326Z,18.62
2022-10-01T12:37:15.411Z,18.76
2022-10-01T12:38:32.756Z,18.77
2022-10-01T12:39:50.651Z,18.80
2022-10-01T12:41:10.959Z,18.85
2022-10-01T12:42:32.954Z,18.89
2022-10-01T12:43:47.568Z,19.09
2022-10-01T12:45:29.282Z,19.37
2022-10-01T12:46:35.492Z,19.29
2022-10-01T12:47:50.505Z,19.45
2022-10-01T12:49:33.460Z,19.94
2022-10-01T12:50:54.658Z,20.62
2022-10-01T12:55:18.199Z,21.18
2022-10-01T12:56:23.080Z,20.99
2022-10-01T12:58:04.037Z,20.78
2022-10-01T12:59:24.719Z,20.96
2022-10-01T13:03:23.246Z,20.47
2022-10-01T13:04:59.936Z,20.42
2022-10-01T13:06:28.420Z,20.16
2022-10-01T13:09:58.841Z,19.69
2022-10-01T13:11:24.406Z,19.62
2022-10-01T13:12:45.010Z,19.55
2022-10-01T13:13:55.983Z,19.56
2022-10-01T13:15:06.936Z,19.54
2022-10-01T13:16:18.176Z,19.48
2022-10-01T13:17:35.247Z,19.37
2022-10-01T13:18:59.254Z,19.22
2022-10-01T13:20:17.117Z,19.21
2022-10-01T13:21:57.948Z,19.07
2022-10-01T13:23:12.234Z,19.11
2022-10-01T13:24:29.448Z,19.20
2022-10-01T13:25:59.960Z,19.32
2022-10-01T13:27:32.126Z,19.60
2022-10-01T13:29:00.517Z,19.67
2022-10-01T13:30:28.707Z,19.62
2022-10-01T13:31:37.439Z,19.70
2022-10-01T13:33:05.807Z,19.65
2022-10-01T13:34:46.948Z,19.42
2022-10-01T13:35:59.382Z,19.59
2022-10-01T13:37:37.746Z,19.52
2022-10-01T13:39:05.740Z,19.47
2022-10-01T13:40:37.863Z,19.42
2022-10-01T13:41:40.275Z,19.42
2022-10-01T13:42:53.414Z,19.34
2022-10-01T13:44:36.690Z,19.32
2022-10-01T13:45:41.506Z,19.41
2022-10-01T13:46:56.240Z,19.36
2022-10-01T13:48:15.940Z,19.38
2022-10-01T13:49:25.552Z,19.31
2022-10-01T13:50:27.939Z,19.43
2022-10-01T13:51:38.534Z,19.41
2022-10-01T13:52:41.342Z,19.42
2022-10-01T13:53:43.793Z,19.45
2022-10-01T13:54:52.417Z,19.29
2022-10-01T13:56:11.986Z,19.41
2022-10-01T13:57:40.602Z,19.37
2022-10-01T13:58:45.278Z,19.43
2022-10-01T14:00:25.436Z,19.60
2022-10-01T14:01:52.214Z,19.63
2022-10-01T14:03:25.856Z,19.77
2022-10-01T14:04:41.753Z,19.94
2022-10-01T14:05:44.473Z,20.24
2022-10-01T14:07:01.748Z,20.26
2022-10-01T14:08:25.056Z,20.23
2022-10-01T14:09:42.999Z,20.34
2022-10-01T14:11:31.458Z,20.29
2022-10-01T14:12:58.796Z,20.18
2022-10-01T14:14:58.041Z,20.02
2022-10-01T14:16:00.659Z,20.01
2022-10-01T14:17:11.762Z,19.95
2022-10-01T14:18:23.944Z,19.96
2022-10-01T14:19:27.875Z,19.94
2022-10-01T14:20:47.582Z,19.98
2022-10-01T14:22:32.517Z,19.90
2022-10-01T14:23:52.363Z,19.89
2022-10-01T14:25:15.728Z,20.08
2022-10-01T14:26:47.911Z,20.20
2022-10-01T14:27:50.477Z,20.01
2022-10-01T14:29:34.617Z,19.96
2022-10-01T14:31:00.586Z,19.91
2022-10-01T14:32:25.732Z,19.80
2022-10-01T14:33:42.129Z,19.58
2022-10-01T14:35:00.223Z,19.52
2022-10-01T14:36:21.381Z,19.50
2022-10-01T14:37:24.592Z,19.47
2022-10-01T14:38:28.516Z,19.44
2022-10-01T14:39:31.245Z,19.50
2022-10-01T14:40:39.523Z,19.51
2022-10-01T14:41:43.187Z,19.48
2022-10-01T14:43:03.477Z,19.38
2022-10-01T14:44:43.276Z,19.40
2022-10-01T14:45:55.555Z,19.34
2022-10-01T14:47:00.892Z,19.28
2022-10-01T14:48:07.386Z,19.22
2022-10-01T14:49:25.725Z,19.15
2022-10-01T14:50:32.971Z,19.15
2022-10-01T14:51:35.327Z,19.06
2022-10-01T14:52:43.646Z,19.01
2022-10-01T14:53:46.044Z,18.92
2022-10-01T14:54:56.896Z,18.93
2022-10-01T14:56:13.742Z,18.87
2022-10-01T14:57:37.871Z,18.92
2022-10-01T14:58:54.875Z,18.89